createdAt,value
2022-09-12T00:28:38.263Z,-60
2022-09-12T00:58:44.394Z,-60
2022-09-12T01:29:00.258Z,-60
2022-09-12T01:59:10.125Z,-59
2022-09-12T02:29:14.512Z,-60
2022-09-12T03:00:35.757Z,-59
2022-09-12T03:30:37.941Z,-59
2022-09-12T04:00:41.749Z,-60
2022-09-12T04:30:51.423Z,-60
2022-09-12T05:00:52.353Z,-60
2022-09-12T05:31:00.747Z,-59
2022-09-12T06:01:10.894Z,-59
2022-09-12T06:31:23.154Z,-59
2022-09-12T07:01:25.373Z,-59
2022-09-12T07:31:32.836Z,-60
2022-09-12T08:01:34.805Z,-63
2022-09-12T08:31:44.795Z,-64
2022-09-12T09:01:52.505Z,-65
2022-09-12T09:31:56.826Z,-67
2022-09-12T10:02:03.315Z,-67
2022-09-12T10:32:06.818Z,-68
2022-09-12T11:02:19.330Z,-68
2022-09-12T11:32:20.651Z,-67
2022-09-12T12:02:29.297Z,-68
2022-09-12T12:32:36.795Z,-68
2022-09-12T13:02:41.776Z,-69
2022-09-12T13:32:45.855Z,-73
2022-09-12T14:02:48.635Z,-68
2022-09-12T14:32:55.006Z,-69
2022-09-12T15:03:02.706Z,-68
2022-09-12T15:33:06.288Z,-68
2022-09-12T16:03:11.677Z,-68
2022-09-12T16:33:17.411Z,-68
2022-09-12T17:03:31.256Z,-66
2022-09-12T17:33:32.927Z,-66
2022-09-12T18:03:35.764Z,-66
2022-09-12T18:33:45.314Z,-67
2022-09-12T19:03:53.216Z,-66
2022-09-12T19:34:02.787Z,-66
2022-09-12T20:04:09.742Z,-66
2022-09-12T20:34:23.259Z,-66
2022-09-12T21:04:42.155Z,-66
2022-09-12T21:34:44.129Z,-64
2022-09-12T22:04:45.802Z,-65
2022-09-12T22:34:46.172Z,-64
2022-09-12T23:04:54.396Z,-65
2022-09-12T23:34:57.758Z,-64
